createdAt,value
2023-04-20T07:36:21.928Z,12.80
2023-04-20T07:58:32.562Z,13.10
2023-04-20T11:43:21.957Z,20.10
2023-04-20T13:44:54.591Z,21.60
2023-04-20T18:03:44.568Z,17.90
2023-04-20T18:07:49.160Z,17.70
2023-04-20T18:11:52.560Z,17.50
2023-04-20T18:51:06.533Z,16.70
2023-04-20T19:14:11.948Z,16.30
2023-04-20T19:18:16.171Z,16.10
2023-04-20T19:22:22.922Z,16.00
2023-04-20T19:26:26.323Z,15.90
2023-04-20T19:30:28.869Z,15.60
2023-04-20T19:34:32.089Z,15.40
2023-04-20T19:38:39.040Z,15.00
2023-04-20T19:42:42.901Z,14.90
2023-04-20T19:46:45.786Z,14.60
2023-04-20T19:50:48.550Z,14.50
2023-04-20T19:54:53.338Z,14.40
2023-04-20T19:58:55.934Z,14.30
2023-04-20T20:02:58.685Z,14.30
2023-04-20T20:07:09.508Z,14.30
2023-04-20T20:19:45.533Z,14.20
2023-04-20T20:23:48.028Z,14.20
2023-04-20T20:27:51.735Z,14.20
2023-04-20T20:31:58.263Z,14.10
2023-04-20T20:36:03.637Z,14.00
2023-04-20T20:40:07.214Z,14.00
2023-04-20T20:44:12.674Z,13.90
2023-04-20T20:48:15.407Z,13.80
2023-04-20T20:52:19.168Z,13.80
2023-04-20T20:56:22.897Z,13.70
2023-04-20T21:00:25.489Z,13.60
2023-04-20T21:04:29.940Z,13.50
2023-04-20T21:08:32.794Z,13.40
2023-04-20T21:12:36.282Z,13.40
2023-04-20T21:16:39.536Z,13.40
2023-04-20T21:20:45.905Z,13.40
2023-04-20T21:33:27.543Z,13.50
2023-04-20T21:41:50.939Z,13.60
2023-04-20T21:45:55.884Z,13.60
2023-04-20T21:49:58.549Z,13.60
2023-04-20T21:54:01.067Z,13.60
2023-04-20T21:58:04.677Z,13.70
2023-04-20T22:02:07.499Z,13.60
2023-04-20T22:06:10.486Z,13.50
2023-04-20T22:10:13.273Z,13.40
2023-04-20T22:14:17.247Z,13.20
2023-04-20T22:18:20.136Z,13.20
2023-04-20T22:22:25.125Z,13.10
2023-04-20T22:26:28.392Z,13.10
2023-04-20T22:30:34.834Z,13.00
2023-04-20T22:34:37.385Z,13.00
2023-04-20T22:38:40.140Z,12.80
2023-04-20T22:42:42.664Z,12.80
2023-04-20T22:46:45.484Z,12.70
2023-04-20T22:50:49.106Z,12.60
2023-04-20T22:54:53.058Z,12.40
2023-04-20T22:58:56.656Z,12.30
2023-04-20T23:03:08.536Z,12.10
2023-04-20T23:07:11.640Z,12.00
2023-04-20T23:11:16.461Z,12.00
2023-04-20T23:15:20.202Z,12.00
2023-04-20T23:19:23.635Z,11.90
2023-04-20T23:23:26.213Z,11.80
2023-04-20T23:27:41.666Z,11.80
2023-04-20T23:31:44.376Z,11.70
2023-04-20T23:35:47.035Z,11.60
2023-04-20T23:39:49.685Z,11.60
2023-04-20T23:48:35.293Z,11.60
